North Attleboro, MA (02763)

10:49 PM EDT on July 30, 2016 (GMT -0400)
Smith Street | | Change Station

Elev 195 ft 41.98 °N, 71.32 °W | Updated 7 seconds ago

Overcast
Overcast
75.2 °F
Feels Like 75 °F
N
0.0
Wind Variable Wind from South
Gusts 0.0 mph

Today
High -- | Low -- °F
--% Chance of Precip.
Yesterday
High -- | Low -- °F
Precip. -- in
Pressure 30.08 in
Visibility 10.0 miles
Clouds Overcast 1100 ft
Heat Index 75 °F
Dew Point 71 °F
Humidity 87%
Rainfall 0.00 in
Snow Depth Not available.
5:37 AM 8:05 PM
Waning Crescent, 9% visible
METAR KSFZ 310235Z 20003KT 10SM OVC011 23/20 A3008 RMK AO1
Pressure 30.08 in
Visibility 10.0 miles
Clouds Overcast 1100 ft
Heat Index 75 °F
Dew Point 71 °F
Humidity 87%
Rainfall 0.00 in
Snow Depth Not available.
5:37 AM 8:05 PM
Waning Crescent, 9% visible
METAR KSFZ 310235Z 20003KT 10SM OVC011 23/20 A3008 RMK AO1

10-Day Weather Forecast

Almanac

Astronomy

Jul. 30, 2016 Rise Set
Actual Time
Civil Twilight
Nautical Twilight
Astronomical Twilight
Moon
Length of Visible Light
Length of Day
Tomorrow will be .
, % of the Moon is Illuminated

Today's Extremes

State Highs State Lows

Community

WunderPhotos

Upload Photos

1,928,715 photos uploaded!

WunderBlog® & News

Nearby

Air Quality

  Air Quality AQ Index Pollutant
Not available.

Snow Depth

Station Depth Elevation

Earthquake Activity

City Distance Mag. Time & Date
Minimum magnitude displayed is 2.5.

Coastal Water Temperatures

Place Temperature

Stations

Nearby Weather Stations

Station Location Temp. Windchill Dew Point Humidity Wind Precip. Elev Updated Type
                   

Watches & Warnings

There are currently no watches in effect.